createdAt,value
2022-11-02T00:03:44.552Z,55.79
2022-11-02T00:08:37.143Z,55.76
2022-11-02T00:13:29.764Z,55.8
2022-11-02T00:23:14.700Z,55.75
2022-11-02T00:32:59.899Z,55.65
2022-11-02T00:37:52.541Z,55.69
2022-11-02T00:42:45.095Z,55.65
2022-11-02T00:47:37.498Z,55.66
2022-11-02T00:52:30.302Z,55.66
2022-11-02T00:57:22.719Z,55.63
2022-11-02T01:02:15.377Z,55.59
2022-11-02T01:07:07.902Z,55.55
2022-11-02T01:12:00.512Z,55.56
2022-11-02T01:16:53.078Z,55.51
2022-11-02T01:21:45.631Z,55.55
2022-11-02T01:26:38.334Z,55.51
2022-11-02T01:31:31.092Z,55.47
2022-11-02T01:36:23.503Z,55.45
2022-11-02T01:41:16.148Z,55.44
2022-11-02T01:46:08.537Z,55.38
2022-11-02T01:51:00.912Z,55.45
2022-11-02T01:55:53.503Z,55.41
2022-11-02T02:00:46.334Z,55.43
2022-11-02T02:05:38.777Z,55.37
2022-11-02T02:10:31.492Z,55.37
2022-11-02T02:15:23.900Z,55.41
2022-11-02T02:20:16.431Z,55.33
2022-11-02T02:25:09.012Z,55.24
2022-11-02T02:30:01.576Z,55.49
2022-11-02T02:34:54.179Z,55.44
2022-11-02T02:39:46.536Z,55.45
2022-11-02T02:44:38.971Z,55.41
2022-11-02T02:49:31.314Z,55.41
2022-11-02T02:54:24.107Z,55.39
2022-11-02T02:59:16.586Z,55.35
2022-11-02T03:04:09.036Z,55.36
2022-11-02T03:09:01.532Z,55.34
2022-11-02T03:13:54.305Z,55.31
2022-11-02T03:18:46.843Z,55.27
2022-11-02T03:23:39.400Z,55.28
2022-11-02T03:28:32.135Z,55.27
2022-11-02T03:33:24.706Z,55.28
2022-11-02T03:38:17.273Z,55.26
2022-11-02T03:43:10.000Z,55.24
2022-11-02T03:48:03.052Z,55.3
2022-11-02T03:52:55.155Z,55.24
2022-11-02T03:57:47.833Z,55.28
2022-11-02T04:02:40.403Z,55.3
2022-11-02T04:07:32.703Z,55.25
2022-11-02T04:12:25.102Z,55.23
2022-11-02T04:17:17.744Z,55.2
2022-11-02T04:22:10.266Z,55.2
2022-11-02T04:27:02.811Z,55.22
2022-11-02T04:31:55.435Z,55.17
2022-11-02T04:36:47.992Z,55.07
2022-11-02T04:41:40.452Z,55.54
2022-11-02T04:46:33.073Z,55.39
2022-11-02T04:51:25.581Z,55.22
2022-11-02T04:56:18.162Z,55.14
2022-11-02T05:01:10.774Z,55.08
2022-11-02T05:06:03.425Z,55.22
2022-11-02T05:10:55.952Z,55.2
2022-11-02T05:15:48.548Z,55.54
2022-11-02T05:20:41.150Z,54.41
2022-11-02T05:25:33.709Z,55.33
2022-11-02T05:30:26.365Z,54.11
2022-11-02T05:35:18.751Z,54.29
2022-11-02T05:40:10.870Z,54.32
2022-11-02T05:45:03.649Z,54.44
2022-11-02T05:49:56.207Z,55.85
2022-11-02T05:59:42.666Z,56.17
2022-11-02T06:09:26.067Z,56.17
2022-11-02T06:19:11.120Z,56.44
2022-11-02T06:28:58.087Z,56.18
2022-11-02T06:33:50.052Z,56.24
2022-11-02T06:38:42.739Z,56.29
2022-11-02T06:43:35.187Z,56.31
2022-11-02T06:48:33.274Z,56.44
2022-11-02T06:53:20.387Z,56.2
2022-11-02T06:58:12.863Z,56.3
2022-11-02T07:03:05.637Z,56.28
2022-11-02T07:07:57.946Z,56.32
2022-11-02T07:12:50.618Z,56.31
2022-11-02T07:17:43.103Z,56.25
2022-11-02T07:22:35.576Z,56.32
2022-11-02T07:27:27.927Z,56.25
2022-11-02T07:32:20.308Z,56.33
2022-11-02T07:37:13.360Z,56.51
2022-11-02T07:46:58.889Z,56.36
2022-11-02T07:51:51.355Z,56.54
2022-11-02T07:56:43.779Z,56.42
2022-11-02T08:01:36.178Z,56.41
2022-11-02T08:06:28.259Z,56.38
2022-11-02T08:11:20.805Z,56.26
2022-11-02T08:16:13.383Z,56.15
2022-11-02T08:21:05.812Z,56.25
2022-11-02T08:25:58.481Z,56.15
2022-11-02T08:30:51.100Z,56.19
2022-11-02T08:35:43.831Z,55.94
2022-11-02T08:40:36.316Z,56.01
2022-11-02T08:45:30.477Z,55.94
2022-11-02T08:50:21.722Z,55.84
2022-11-02T08:55:14.329Z,55.95
2022-11-02T09:00:06.822Z,55.53
2022-11-02T09:04:59.373Z,55.54
2022-11-02T09:09:51.893Z,55.52
2022-11-02T09:14:44.460Z,55.22
2022-11-02T09:19:37.053Z,55.33
2022-11-02T09:24:29.681Z,55.14
2022-11-02T09:34:14.641Z,54.52
2022-11-02T09:39:07.176Z,54.36
2022-11-02T09:43:59.737Z,54.2
2022-11-02T09:48:53.058Z,54.21
2022-11-02T09:53:45.216Z,54.2
2022-11-02T09:58:37.698Z,54.13
2022-11-02T10:03:29.995Z,54.44
2022-11-02T10:08:22.613Z,54.24
2022-11-02T10:13:14.989Z,54.25
2022-11-02T10:18:07.607Z,53.82
2022-11-02T10:23:00.257Z,53.75
2022-11-02T10:27:52.896Z,53.64
2022-11-02T10:32:45.462Z,53.71
2022-11-02T10:37:37.975Z,54.06
2022-11-02T10:42:30.833Z,54.16
2022-11-02T10:47:23.459Z,53.69
2022-11-02T10:52:16.075Z,53.76
2022-11-02T10:57:09.060Z,53.6
2022-11-02T11:02:01.654Z,53.47
2022-11-02T11:06:54.319Z,53.66
2022-11-02T11:11:46.827Z,53.8
2022-11-02T11:16:39.411Z,53.66
2022-11-02T11:21:32.126Z,53.6
2022-11-02T11:26:24.676Z,53.58
2022-11-02T11:31:17.269Z,53.4
2022-11-02T11:36:09.790Z,53.52
2022-11-02T11:41:02.317Z,53.64
2022-11-02T11:45:54.833Z,53.56
2022-11-02T11:50:47.300Z,53.82
2022-11-02T11:55:39.888Z,53.8
2022-11-02T12:00:32.472Z,53.84
2022-11-02T12:05:25.060Z,53.74
2022-11-02T12:15:10.367Z,53.3
2022-11-02T12:24:55.488Z,53.3
2022-11-02T12:34:40.506Z,53.05
2022-11-02T12:44:25.794Z,53.01
2022-11-02T12:49:18.266Z,52.93
2022-11-02T12:54:10.971Z,52.78
2022-11-02T12:59:03.382Z,52.66
2022-11-02T13:03:55.837Z,52.75
2022-11-02T13:08:48.413Z,52.59
2022-11-02T13:13:41.158Z,52.44
2022-11-02T13:18:33.688Z,52.53
2022-11-02T13:23:26.228Z,52.43
2022-11-02T13:33:11.611Z,52.51
2022-11-02T13:42:56.549Z,52.62
2022-11-02T13:47:49.109Z,52.69
2022-11-02T13:52:41.570Z,52.63
2022-11-02T13:57:34.043Z,52.7
2022-11-02T14:02:26.648Z,52.7
2022-11-02T14:07:18.817Z,52.81
2022-11-02T14:12:11.395Z,52.65
2022-11-02T14:17:04.424Z,52.67
2022-11-02T14:21:56.598Z,51.15
2022-11-02T14:26:49.278Z,51.67
2022-11-02T14:31:41.753Z,49.33
2022-11-02T14:36:29.050Z,48.5
2022-11-02T14:41:22.009Z,49.49
2022-11-02T14:46:15.820Z,48.67
2022-11-02T14:51:08.070Z,46.22
2022-11-02T14:56:00.411Z,46.99
2022-11-02T15:00:53.127Z,46.88
2022-11-02T15:05:45.604Z,47.14
2022-11-02T15:10:38.231Z,47.64
2022-11-02T15:15:30.645Z,47.29
2022-11-02T15:20:23.675Z,48.19
2022-11-02T15:25:16.445Z,48.17
2022-11-02T15:30:09.163Z,47.9
2022-11-02T15:35:01.323Z,48.17
2022-11-02T15:39:53.749Z,48.26
2022-11-02T15:44:46.501Z,48.42
2022-11-02T15:49:39.270Z,48.28
2022-11-02T15:54:32.288Z,49.15
2022-11-02T15:59:25.213Z,49.08
2022-11-02T16:04:18.148Z,48.96
2022-11-02T16:09:10.816Z,49.47
2022-11-02T16:14:08.762Z,49.65
2022-11-02T16:18:56.406Z,49.86
2022-11-02T16:23:49.442Z,50.04
2022-11-02T16:28:41.995Z,50.29
2022-11-02T16:33:34.623Z,50.61
2022-11-02T16:38:21.621Z,50.58
2022-11-02T16:43:14.962Z,50.59
2022-11-02T16:48:08.879Z,50.28
2022-11-02T16:53:01.602Z,50.38
2022-11-02T16:57:54.263Z,50.58
2022-11-02T17:02:46.781Z,50.69
2022-11-02T17:07:39.614Z,50.94
2022-11-02T17:12:32.478Z,50.97
2022-11-02T17:17:25.085Z,51.11
2022-11-02T17:22:18.049Z,50.93
2022-11-02T17:27:10.812Z,51.18
2022-11-02T17:32:03.516Z,51.7
2022-11-02T17:36:56.343Z,51.88
2022-11-02T17:41:49.254Z,52.13
2022-11-02T17:46:44.683Z,52.36
2022-11-02T17:51:34.672Z,52.44
2022-11-02T18:01:20.261Z,52.6
2022-11-02T18:11:05.499Z,52.73
2022-11-02T18:20:50.918Z,52.95
2022-11-02T18:25:43.496Z,52.94
2022-11-02T18:30:35.825Z,52.92
2022-11-02T18:35:28.576Z,52.97
2022-11-02T18:40:21.258Z,53.04
2022-11-02T18:45:14.007Z,53.13
2022-11-02T18:50:06.667Z,53.16
2022-11-02T18:54:59.362Z,53.23
2022-11-02T18:59:52.123Z,53.22
2022-11-02T19:04:44.928Z,53.32
2022-11-02T19:09:37.421Z,53.37
2022-11-02T19:14:30.177Z,53.44
2022-11-02T19:19:27.927Z,53.59
2022-11-02T19:24:15.735Z,53.55
2022-11-02T19:29:08.383Z,53.57
2022-11-02T19:34:01.157Z,53.68
2022-11-02T19:38:53.815Z,53.81
2022-11-02T19:43:46.509Z,53.77
2022-11-02T19:48:39.238Z,53.82
2022-11-02T19:53:31.913Z,53.79
2022-11-02T19:58:24.750Z,53.79
2022-11-02T20:03:17.624Z,53.96
2022-11-02T20:08:10.288Z,53.95
2022-11-02T20:13:03.177Z,53.74
2022-11-02T20:18:13.671Z,53.48
2022-11-02T20:22:48.647Z,53.44
2022-11-02T20:27:40.810Z,53.56
2022-11-02T20:32:32.569Z,53.52
2022-11-02T20:37:24.719Z,53.51
2022-11-02T20:42:16.516Z,53.48
2022-11-02T20:47:08.834Z,53.38
2022-11-02T20:52:01.626Z,53.4
2022-11-02T20:56:54.340Z,53.35
2022-11-02T21:01:47.101Z,53.33
2022-11-02T21:06:39.738Z,53.35
2022-11-02T21:11:32.499Z,53.41
2022-11-02T21:16:25.292Z,53.36
2022-11-02T21:21:18.203Z,53.34
2022-11-02T21:26:10.828Z,53.39
2022-11-02T21:31:03.444Z,53.4
2022-11-02T21:35:56.249Z,53.39
2022-11-02T21:40:48.884Z,53.34
2022-11-02T21:45:41.472Z,53.36
2022-11-02T21:50:34.153Z,53.38
2022-11-02T21:55:26.954Z,53.31
2022-11-02T22:00:19.505Z,53.34
2022-11-02T22:05:12.209Z,53.24
2022-11-02T22:10:04.964Z,53.33
2022-11-02T22:14:57.725Z,53.28
2022-11-02T22:19:50.448Z,53.26
2022-11-02T22:24:44.850Z,53.27
2022-11-02T22:29:35.760Z,53.21
2022-11-02T22:34:28.307Z,53.21
2022-11-02T22:39:21.068Z,53.2
2022-11-02T22:44:13.626Z,53.16
2022-11-02T22:49:06.212Z,53.16
2022-11-02T22:53:58.827Z,53.15
2022-11-02T22:58:51.572Z,53.17
2022-11-02T23:03:44.263Z,53.17
2022-11-02T23:08:37.033Z,53.14
2022-11-02T23:13:29.804Z,53.11
2022-11-02T23:18:22.623Z,53.08
2022-11-02T23:28:08.098Z,53.12
2022-11-02T23:37:53.317Z,53.04
2022-11-02T23:47:38.664Z,53.04
2022-11-02T23:52:31.375Z,53.04
2022-11-02T23:57:24.309Z,53.06
